KMEV/MEV METAR and TAF weather

Enter ICAO airport designator
Station Type Date Time Source
KMEV METAR 2022/01/26 20:55 UTC NOAA

KMEV 262055Z AUTO 00000KT 10SM CLR 05/M09 A3021 RMK AO2


Station Type Date Time Source
KMEV Decoded METAR 2022/01/26 20:55 UTC NOAA

Station name not available
Jan 26, 2022 - 03:55 PM EST / 2022.01.26 2055 UTC
Wind: Calm:0
Visibility: 10 mile(s):0
Sky conditions: clear
Temperature: 41 F (5 C)
Dew Point: 15 F (-9 C)
Relative Humidity: 35%
Pressure (altimeter): 30.21 in. Hg (1023 hPa)
ob: KMEV 262055Z AUTO 00000KT 10SM CLR 05/M09 A3021 RMK AO2
cycle: 21

Station Type Date Time Source
KMEV TAF 2022/01/26 18:30 UTC NOAA

TAF KMEV 261829Z 2618/2718 VRB05KT P6SM SKC

Example: see airport list